createdAt,value
2017-08-07T00:01:26.794Z,26.47
2017-08-07T00:03:54.367Z,26.39
2017-08-07T00:06:21.992Z,26.43
2017-08-07T00:08:49.635Z,26.33
2017-08-07T00:11:17.187Z,26.37
2017-08-07T00:13:44.767Z,26.30
2017-08-07T00:16:12.345Z,26.29
2017-08-07T00:18:39.913Z,26.20
2017-08-07T00:21:07.447Z,26.35
2017-08-07T00:23:35.962Z,26.43
2017-08-07T00:26:03.622Z,26.38
2017-08-07T00:28:31.202Z,26.44
2017-08-07T00:30:58.842Z,26.39
2017-08-07T00:33:26.638Z,26.37
2017-08-07T00:35:54.178Z,26.43
2017-08-07T00:38:21.807Z,26.40
2017-08-07T00:40:49.355Z,26.44
2017-08-07T00:43:18.220Z,26.46
2017-08-07T00:45:47.139Z,26.36
2017-08-07T00:48:14.738Z,26.40
2017-08-07T00:50:42.611Z,26.41
2017-08-07T00:53:10.216Z,26.39
2017-08-07T00:55:37.805Z,26.34
2017-08-07T00:58:05.637Z,26.35
2017-08-07T01:00:33.580Z,26.38
2017-08-07T01:03:01.410Z,26.27
2017-08-07T01:05:29.031Z,26.22
2017-08-07T01:07:56.691Z,26.17
2017-08-07T01:10:24.303Z,26.19
2017-08-07T01:12:52.076Z,26.33
2017-08-07T01:15:19.687Z,26.17
2017-08-07T01:17:47.258Z,26.05
2017-08-07T01:20:15.762Z,26.07
2017-08-07T01:22:43.373Z,25.92
2017-08-07T01:25:11.051Z,25.84
2017-08-07T01:27:38.634Z,25.91
2017-08-07T01:30:07.025Z,25.92
2017-08-07T01:32:34.683Z,26.02
2017-08-07T01:35:02.285Z,25.97
2017-08-07T01:37:29.893Z,25.86
2017-08-07T01:39:57.483Z,25.78
2017-08-07T01:42:25.061Z,25.54
2017-08-07T01:44:52.676Z,25.57
2017-08-07T01:47:20.300Z,25.48
2017-08-07T01:49:47.929Z,25.57
2017-08-07T01:52:15.558Z,25.61
2017-08-07T01:54:43.199Z,25.53
2017-08-07T01:57:10.867Z,25.66
2017-08-07T01:59:38.462Z,25.63
2017-08-07T02:02:06.106Z,25.65
2017-08-07T02:04:33.681Z,25.77
2017-08-07T02:07:01.241Z,25.70
2017-08-07T02:09:28.871Z,25.73
2017-08-07T02:11:56.421Z,25.86
2017-08-07T02:14:23.982Z,25.82
2017-08-07T02:16:51.581Z,25.92
2017-08-07T02:19:19.135Z,26.01
2017-08-07T02:21:46.746Z,26.13
2017-08-07T02:24:14.388Z,26.20
2017-08-07T02:26:41.963Z,26.19
2017-08-07T02:29:09.583Z,26.27
2017-08-07T02:31:37.204Z,26.27
2017-08-07T02:34:04.794Z,26.27
2017-08-07T02:36:32.389Z,26.32
2017-08-07T02:39:00.028Z,26.26
2017-08-07T02:41:27.643Z,26.24
2017-08-07T02:43:55.323Z,26.25
2017-08-07T02:46:22.917Z,26.20
2017-08-07T02:48:50.527Z,26.17
2017-08-07T02:51:18.292Z,26.12
2017-08-07T02:53:46.111Z,26.08
2017-08-07T02:56:13.751Z,26.01
2017-08-07T02:58:41.584Z,26.13
2017-08-07T03:01:09.191Z,26.13
2017-08-07T03:03:36.758Z,26.09
2017-08-07T03:06:04.432Z,26.07
2017-08-07T03:08:32.034Z,26.07
2017-08-07T03:10:59.589Z,26.10
2017-08-07T03:13:27.167Z,26.19
2017-08-07T03:15:54.781Z,26.04
2017-08-07T03:18:22.530Z,25.89
2017-08-07T03:20:50.281Z,25.99
2017-08-07T03:23:18.067Z,26.06
2017-08-07T03:25:45.696Z,26.00
2017-08-07T03:28:13.294Z,26.02
2017-08-07T03:30:40.858Z,25.99
2017-08-07T03:33:08.464Z,25.95
2017-08-07T03:35:36.237Z,25.86
2017-08-07T03:38:03.859Z,25.90
2017-08-07T03:40:31.434Z,26.00
2017-08-07T03:42:59.028Z,25.94
2017-08-07T03:45:26.627Z,25.98
2017-08-07T03:47:54.256Z,26.06
2017-08-07T03:50:22.016Z,26.02
2017-08-07T03:52:49.617Z,25.84
2017-08-07T03:55:17.269Z,25.90
2017-08-07T03:57:44.866Z,25.87
2017-08-07T04:00:12.543Z,25.97
2017-08-07T04:02:40.306Z,26.03
2017-08-07T04:05:08.096Z,26.04
2017-08-07T04:07:35.730Z,26.16
2017-08-07T04:10:03.306Z,26.19
2017-08-07T04:12:30.877Z,26.14
2017-08-07T04:14:58.458Z,26.16
2017-08-07T04:17:27.842Z,26.35
2017-08-07T04:19:55.403Z,26.35
2017-08-07T04:22:23.055Z,26.27
2017-08-07T04:24:50.637Z,26.40
2017-08-07T04:27:18.210Z,26.46
2017-08-07T04:29:45.823Z,26.75
2017-08-07T04:32:13.700Z,26.94
2017-08-07T04:34:41.787Z,27.00
2017-08-07T04:37:09.365Z,26.77
2017-08-07T04:39:36.935Z,26.95
2017-08-07T04:42:04.507Z,26.94
2017-08-07T04:44:32.105Z,27.05
2017-08-07T04:46:59.768Z,26.76
2017-08-07T04:49:27.327Z,26.76
2017-08-07T04:51:54.891Z,26.85
2017-08-07T04:54:22.453Z,26.78
2017-08-07T04:56:52.885Z,27.08
2017-08-07T04:59:20.647Z,27.07
2017-08-07T05:01:48.246Z,27.24
2017-08-07T05:04:15.815Z,27.29
2017-08-07T05:06:43.422Z,27.41
2017-08-07T05:09:11.026Z,27.66
2017-08-07T05:11:38.587Z,27.66
2017-08-07T05:14:06.215Z,27.86
2017-08-07T05:16:33.793Z,28.12
2017-08-07T05:19:01.415Z,28.19
2017-08-07T05:21:29.003Z,28.44
2017-08-07T05:23:56.637Z,28.26
2017-08-07T05:26:24.391Z,28.47
2017-08-07T05:28:52.175Z,28.64
2017-08-07T05:31:19.827Z,28.56
2017-08-07T05:33:47.428Z,28.51
2017-08-07T05:36:15.223Z,28.79
2017-08-07T05:38:42.821Z,28.56
2017-08-07T05:41:10.411Z,28.72
2017-08-07T05:43:38.166Z,28.63
2017-08-07T05:46:05.832Z,28.60
2017-08-07T05:48:33.399Z,29.07
2017-08-07T05:51:01.037Z,29.44
2017-08-07T05:53:28.637Z,30.00
2017-08-07T05:55:56.201Z,30.09
2017-08-07T05:58:23.965Z,30.75
2017-08-07T06:00:51.565Z,30.89
2017-08-07T06:03:19.352Z,30.78
2017-08-07T06:05:46.931Z,31.10
2017-08-07T06:08:14.490Z,31.33
2017-08-07T06:10:42.093Z,31.23
2017-08-07T06:13:09.842Z,31.47
2017-08-07T06:15:37.454Z,31.94
2017-08-07T06:18:05.274Z,31.51
2017-08-07T06:20:32.893Z,31.53
2017-08-07T06:23:00.549Z,31.28
2017-08-07T06:25:29.228Z,31.38
2017-08-07T06:27:56.775Z,31.33
2017-08-07T06:30:24.482Z,32.10
2017-08-07T06:32:52.100Z,31.99
2017-08-07T06:35:19.748Z,32.45
2017-08-07T06:37:47.339Z,32.55
2017-08-07T06:40:20.498Z,32.81
2017-08-07T06:42:48.135Z,32.59
2017-08-07T06:45:15.718Z,32.67
2017-08-07T06:47:43.299Z,32.67
2017-08-07T06:50:10.876Z,32.81
2017-08-07T06:52:38.792Z,32.83
2017-08-07T06:55:06.338Z,33.08
2017-08-07T06:57:33.966Z,33.46
2017-08-07T07:00:01.559Z,33.71
2017-08-07T07:02:29.130Z,33.90
2017-08-07T07:04:56.703Z,34.35
2017-08-07T07:07:24.359Z,34.40
2017-08-07T07:09:51.999Z,33.66
2017-08-07T07:12:20.005Z,34.05
2017-08-07T07:14:47.555Z,34.13
2017-08-07T07:17:15.164Z,34.12
2017-08-07T07:19:43.347Z,34.39
2017-08-07T07:22:10.895Z,34.03
2017-08-07T07:24:38.497Z,34.32
2017-08-07T07:27:06.085Z,34.69
2017-08-07T07:29:34.646Z,35.22
2017-08-07T07:32:02.340Z,35.45
2017-08-07T07:34:30.134Z,35.04
2017-08-07T07:36:58.017Z,34.83
2017-08-07T07:39:25.610Z,34.97
2017-08-07T07:41:53.195Z,34.92
2017-08-07T07:44:20.862Z,35.48
2017-08-07T07:46:49.111Z,35.20
2017-08-07T07:49:16.864Z,35.45
2017-08-07T07:51:44.503Z,35.09
2017-08-07T07:54:12.365Z,35.80
2017-08-07T07:56:39.942Z,35.77
2017-08-07T07:59:07.558Z,36.00
2017-08-07T08:01:35.185Z,36.38
2017-08-07T08:04:02.720Z,36.31
2017-08-07T08:06:30.366Z,35.78
2017-08-07T08:08:58.024Z,35.95
2017-08-07T08:11:25.662Z,35.61
2017-08-07T08:13:53.565Z,35.15
2017-08-07T08:16:22.152Z,35.00
2017-08-07T08:18:49.734Z,35.01
2017-08-07T08:21:17.310Z,35.00
2017-08-07T08:23:44.989Z,35.38
2017-08-07T08:26:12.703Z,35.16
2017-08-07T08:28:40.249Z,35.01
2017-08-07T08:31:07.865Z,35.64
2017-08-07T08:33:35.472Z,36.22
2017-08-07T08:36:03.050Z,36.11
2017-08-07T08:38:30.725Z,36.52
2017-08-07T08:40:58.282Z,36.79
2017-08-07T08:43:26.308Z,37.18
2017-08-07T08:45:54.782Z,37.01
2017-08-07T08:48:22.357Z,37.22
2017-08-07T08:50:50.632Z,37.02
2017-08-07T08:53:18.276Z,36.68
2017-08-07T08:55:46.791Z,36.26
2017-08-07T08:58:14.410Z,36.17
2017-08-07T09:00:51.146Z,36.27
2017-08-07T09:03:18.922Z,36.85
2017-08-07T09:05:47.142Z,37.10
2017-08-07T09:08:14.735Z,37.27
2017-08-07T09:10:42.406Z,36.39
2017-08-07T09:13:10.007Z,36.55
2017-08-07T09:15:37.600Z,35.86
2017-08-07T09:18:06.646Z,35.95
2017-08-07T09:20:34.803Z,35.53
2017-08-07T09:23:02.798Z,35.67
2017-08-07T09:25:33.503Z,36.06
2017-08-07T09:28:02.427Z,36.68
2017-08-07T09:30:30.139Z,36.65
2017-08-07T09:32:58.676Z,35.82
2017-08-07T09:35:26.223Z,35.81
2017-08-07T09:37:53.816Z,35.73
2017-08-07T09:40:21.367Z,35.58
2017-08-07T09:42:48.915Z,35.71
2017-08-07T09:45:19.095Z,35.59
2017-08-07T09:47:46.699Z,35.57
2017-08-07T09:50:14.449Z,35.51
2017-08-07T09:52:42.009Z,35.52
2017-08-07T09:55:09.818Z,35.63
2017-08-07T09:57:37.427Z,35.44
2017-08-07T10:00:08.159Z,35.60
2017-08-07T10:02:35.709Z,35.75
2017-08-07T10:05:03.289Z,35.73
2017-08-07T10:07:30.875Z,35.83
2017-08-07T10:09:58.468Z,35.75
2017-08-07T10:12:26.249Z,35.52
2017-08-07T10:14:53.826Z,36.02
2017-08-07T10:17:21.417Z,36.05
2017-08-07T10:19:49.781Z,35.72
2017-08-07T10:22:17.409Z,35.79
2017-08-07T10:24:45.064Z,35.83
2017-08-07T10:27:13.890Z,35.91
2017-08-07T10:29:41.483Z,35.73
2017-08-07T10:32:09.160Z,35.90
2017-08-07T10:34:36.872Z,35.82
2017-08-07T10:37:04.656Z,35.84
2017-08-07T10:39:32.335Z,35.78
2017-08-07T10:42:00.748Z,36.02
2017-08-07T10:44:30.191Z,36.15
2017-08-07T10:46:57.876Z,36.08
2017-08-07T10:49:25.457Z,36.16
2017-08-07T10:51:53.022Z,36.20
2017-08-07T10:54:20.868Z,36.28
2017-08-07T10:56:48.766Z,36.36
2017-08-07T10:59:16.347Z,36.46
2017-08-07T11:01:43.951Z,36.66
2017-08-07T11:04:11.772Z,36.58
2017-08-07T11:06:39.569Z,36.53
2017-08-07T11:09:07.229Z,36.63
2017-08-07T11:11:36.714Z,36.87
2017-08-07T11:14:05.242Z,37.01
2017-08-07T11:16:32.846Z,37.03
2017-08-07T11:19:00.708Z,36.93
2017-08-07T11:21:30.040Z,37.21
2017-08-07T11:23:57.624Z,37.22
2017-08-07T11:26:26.597Z,37.04
2017-08-07T11:28:55.134Z,36.98
2017-08-07T11:31:23.051Z,36.72
2017-08-07T11:33:50.654Z,36.49
2017-08-07T11:36:18.312Z,36.84
2017-08-07T11:38:45.915Z,36.97
2017-08-07T11:41:14.384Z,37.20
2017-08-07T11:43:42.041Z,37.36
2017-08-07T11:46:10.836Z,36.96
2017-08-07T11:48:38.389Z,37.26
2017-08-07T11:51:06.671Z,37.41
2017-08-07T11:53:34.472Z,37.77
2017-08-07T11:56:03.207Z,37.71
2017-08-07T11:58:30.985Z,37.76
2017-08-07T12:00:58.591Z,37.37
2017-08-07T12:03:26.229Z,36.99
2017-08-07T12:05:54.793Z,36.56
2017-08-07T12:08:24.233Z,36.15
2017-08-07T12:10:52.054Z,35.84
2017-08-07T12:13:19.685Z,35.67
2017-08-07T12:15:47.701Z,35.74
2017-08-07T12:18:17.054Z,35.84
2017-08-07T12:20:44.641Z,36.08
2017-08-07T12:23:14.080Z,35.94
2017-08-07T12:25:42.317Z,35.88
2017-08-07T12:28:10.991Z,35.72
2017-08-07T12:30:38.577Z,35.71
2017-08-07T12:33:07.106Z,35.46
2017-08-07T12:35:34.877Z,35.19
2017-08-07T12:38:02.528Z,35.18
2017-08-07T12:40:30.543Z,35.29
2017-08-07T12:42:58.714Z,35.37
2017-08-07T12:45:26.341Z,35.38
2017-08-07T12:47:54.082Z,35.27
2017-08-07T12:50:22.535Z,35.17
2017-08-07T12:52:50.119Z,34.96
2017-08-07T12:55:17.978Z,34.71
2017-08-07T12:57:45.656Z,34.55
2017-08-07T13:00:13.370Z,34.51
2017-08-07T13:02:40.931Z,34.31
2017-08-07T13:05:08.869Z,34.39
2017-08-07T13:07:38.202Z,34.32
2017-08-07T13:10:05.978Z,34.24
2017-08-07T13:12:33.674Z,34.12
2017-08-07T13:15:01.658Z,34.04
2017-08-07T13:17:29.267Z,33.84
2017-08-07T13:19:56.801Z,33.44
2017-08-07T13:22:24.422Z,33.39
2017-08-07T13:24:52.339Z,33.12
2017-08-07T13:27:20.077Z,32.49
2017-08-07T13:29:47.683Z,31.54
2017-08-07T13:32:15.269Z,31.49
2017-08-07T13:34:45.717Z,30.88
2017-08-07T13:37:13.314Z,30.32
2017-08-07T13:39:40.931Z,29.99
2017-08-07T13:42:08.594Z,29.68
2017-08-07T13:44:36.231Z,29.52
2017-08-07T13:47:04.697Z,28.99
2017-08-07T13:49:32.349Z,28.17
2017-08-07T13:51:59.948Z,26.98
2017-08-07T13:54:27.565Z,26.65
2017-08-07T13:56:55.138Z,26.74
2017-08-07T13:59:22.951Z,26.58
2017-08-07T14:01:50.954Z,26.22
2017-08-07T14:04:19.502Z,25.95
2017-08-07T14:06:47.121Z,25.80
2017-08-07T14:09:14.874Z,26.01
2017-08-07T14:11:42.559Z,25.73
2017-08-07T14:14:10.361Z,25.66
2017-08-07T14:16:38.006Z,25.65
2017-08-07T14:19:06.439Z,25.94
2017-08-07T14:21:34.058Z,25.93
2017-08-07T14:24:01.724Z,26.01
2017-08-07T14:26:29.553Z,25.49
2017-08-07T14:28:57.150Z,25.36
2017-08-07T14:31:24.786Z,25.69
2017-08-07T14:33:52.419Z,25.89
2017-08-07T14:36:19.974Z,26.35
2017-08-07T14:38:47.531Z,26.62
2017-08-07T14:41:15.083Z,26.77
2017-08-07T14:43:42.836Z,26.84
2017-08-07T14:46:10.951Z,26.90
2017-08-07T14:48:38.601Z,26.65
2017-08-07T14:51:06.230Z,26.47
2017-08-07T14:53:35.610Z,26.27
2017-08-07T14:59:43.309Z,26.31
2017-08-07T15:02:12.720Z,26.29
2017-08-07T15:04:40.287Z,26.10
2017-08-07T15:07:07.910Z,26.12
2017-08-07T15:09:35.526Z,26.45
2017-08-07T15:12:03.180Z,26.34
2017-08-07T15:14:30.718Z,26.29
2017-08-07T15:16:58.434Z,26.11
2017-08-07T15:19:28.336Z,25.94
2017-08-07T15:21:57.968Z,25.90
2017-08-07T15:24:25.613Z,25.99
2017-08-07T15:26:53.184Z,26.28
2017-08-07T15:29:20.778Z,26.17
2017-08-07T15:31:48.375Z,25.93
2017-08-07T15:34:16.100Z,25.96
2017-08-07T15:36:43.783Z,25.97
2017-08-07T15:39:11.437Z,26.04
2017-08-07T15:41:39.365Z,26.17
2017-08-07T15:44:07.013Z,26.35
2017-08-07T15:46:34.670Z,26.56
2017-08-07T15:49:03.135Z,26.69
2017-08-07T15:51:30.715Z,26.60
2017-08-07T15:53:58.309Z,26.61
2017-08-07T15:56:25.908Z,26.56
2017-08-07T15:58:53.494Z,26.83
2017-08-07T16:01:21.131Z,26.89
2017-08-07T16:03:48.712Z,26.92
2017-08-07T16:06:16.311Z,27.12
2017-08-07T16:08:43.886Z,27.28
2017-08-07T16:11:11.569Z,27.40
2017-08-07T16:13:39.232Z,27.33
2017-08-07T16:16:06.954Z,27.37
2017-08-07T16:18:34.576Z,27.57
2017-08-07T16:21:02.172Z,27.57
2017-08-07T16:23:31.239Z,27.54
2017-08-07T16:25:58.785Z,27.64
2017-08-07T16:28:26.541Z,27.71
2017-08-07T16:30:54.840Z,27.77
2017-08-07T16:33:22.464Z,27.85
2017-08-07T16:35:50.025Z,27.59
2017-08-07T16:38:17.600Z,27.40
2017-08-07T16:40:45.156Z,27.48
2017-08-07T16:43:12.927Z,27.53
2017-08-07T16:45:41.965Z,27.38
2017-08-07T16:48:10.613Z,27.45
2017-08-07T16:50:40.439Z,27.45
2017-08-07T16:53:08.618Z,27.33
2017-08-07T16:55:38.077Z,27.43
2017-08-07T16:58:05.722Z,27.33
2017-08-07T17:00:33.413Z,27.24
2017-08-07T17:03:00.978Z,27.37
2017-08-07T17:05:28.555Z,27.24
2017-08-07T17:07:56.156Z,27.19
2017-08-07T17:10:23.759Z,27.30
2017-08-07T17:12:51.374Z,27.29
2017-08-07T17:15:19.019Z,27.14
2017-08-07T17:17:47.430Z,27.21
2017-08-07T17:20:15.000Z,27.17
2017-08-07T17:22:42.592Z,27.18
2017-08-07T17:25:10.138Z,27.10
2017-08-07T17:27:37.792Z,27.15
2017-08-07T17:30:08.026Z,27.18
2017-08-07T17:32:35.651Z,27.15
2017-08-07T17:35:03.208Z,27.17
2017-08-07T17:37:30.844Z,27.15
2017-08-07T17:39:58.409Z,27.13
2017-08-07T17:42:26.053Z,27.12
2017-08-07T17:44:54.324Z,26.92
2017-08-07T17:47:22.077Z,26.58
2017-08-07T17:49:49.731Z,26.58
2017-08-07T17:52:17.336Z,26.79
2017-08-07T17:54:44.896Z,26.99
2017-08-07T17:57:12.662Z,26.98
2017-08-07T17:59:41.060Z,26.81
2017-08-07T18:02:08.677Z,26.89
2017-08-07T18:04:36.299Z,26.89
2017-08-07T18:07:03.890Z,26.74
2017-08-07T18:09:31.471Z,26.65
2017-08-07T18:11:59.257Z,26.62
2017-08-07T18:14:27.020Z,26.60
2017-08-07T18:16:54.634Z,26.64
2017-08-07T18:19:22.388Z,26.84
2017-08-07T18:21:49.941Z,26.93
2017-08-07T18:24:17.578Z,27.04
2017-08-07T18:26:45.202Z,27.07
2017-08-07T18:29:12.746Z,27.14
2017-08-07T18:31:40.346Z,27.23
2017-08-07T18:34:07.896Z,27.22
2017-08-07T18:36:35.472Z,27.02
2017-08-07T18:39:03.650Z,26.87
2017-08-07T18:41:31.215Z,26.93
2017-08-07T18:43:58.818Z,26.78
2017-08-07T18:46:26.467Z,26.76
2017-08-07T18:48:54.042Z,26.78
2017-08-07T18:51:21.666Z,26.80
2017-08-07T18:53:49.299Z,26.97
2017-08-07T18:56:16.877Z,27.09
2017-08-07T18:58:44.771Z,27.08
2017-08-07T19:01:12.389Z,27.18
2017-08-07T19:03:40.139Z,27.24
2017-08-07T19:06:07.668Z,27.30
2017-08-07T19:08:35.262Z,27.22
2017-08-07T19:11:02.832Z,27.12
2017-08-07T19:13:30.440Z,27.23
2017-08-07T19:15:58.563Z,27.35
2017-08-07T19:18:26.171Z,27.37
2017-08-07T19:20:53.800Z,27.36
2017-08-07T19:23:21.450Z,27.37
2017-08-07T19:25:48.991Z,27.24
2017-08-07T19:28:16.578Z,27.27
2017-08-07T19:30:44.181Z,27.31
2017-08-07T19:33:11.747Z,27.32
2017-08-07T19:35:39.298Z,27.38
2017-08-07T19:38:06.953Z,27.37
2017-08-07T19:40:34.503Z,27.18
2017-08-07T19:43:02.095Z,27.16
2017-08-07T19:45:31.484Z,27.13
2017-08-07T19:47:59.090Z,27.07
2017-08-07T19:50:26.883Z,27.03
2017-08-07T19:52:55.262Z,26.98
2017-08-07T19:55:23.702Z,26.99
2017-08-07T19:57:51.310Z,27.03
2017-08-07T20:00:18.981Z,26.97
2017-08-07T20:02:46.599Z,27.07
2017-08-07T20:05:15.624Z,27.02
2017-08-07T20:07:43.937Z,26.92
2017-08-07T20:10:11.582Z,26.91
2017-08-07T20:12:39.215Z,26.93
2017-08-07T20:15:06.943Z,26.84
2017-08-07T20:17:34.623Z,26.83
2017-08-07T20:20:02.181Z,26.88
2017-08-07T20:22:29.822Z,26.77
2017-08-07T20:24:57.509Z,26.81
2017-08-07T20:27:29.641Z,26.83
2017-08-07T20:29:57.357Z,26.82
2017-08-07T20:32:24.999Z,26.69
2017-08-07T20:34:52.646Z,26.76
2017-08-07T20:37:20.471Z,26.67
2017-08-07T20:39:48.105Z,26.75
2017-08-07T20:42:15.706Z,26.65
2017-08-07T20:44:43.311Z,26.67
2017-08-07T20:47:24.873Z,26.61
2017-08-07T20:49:52.545Z,26.64
2017-08-07T20:52:20.136Z,26.68
2017-08-07T20:54:47.700Z,26.66
2017-08-07T20:57:15.295Z,26.59
2017-08-07T20:59:42.859Z,26.59
2017-08-07T21:02:10.524Z,26.58
2017-08-07T21:04:38.091Z,26.71
2017-08-07T21:07:05.706Z,26.62
2017-08-07T21:09:33.338Z,26.55
2017-08-07T21:12:00.982Z,26.64
2017-08-07T21:14:28.630Z,26.62
2017-08-07T21:16:56.328Z,26.51
2017-08-07T21:19:25.804Z,26.57
2017-08-07T21:22:04.009Z,26.68
2017-08-07T21:24:31.676Z,26.58
2017-08-07T21:26:59.464Z,26.59
2017-08-07T21:29:30.813Z,26.53
2017-08-07T21:31:58.494Z,26.48
2017-08-07T21:34:26.011Z,26.39
2017-08-07T21:36:53.897Z,26.45
2017-08-07T21:39:21.491Z,26.42
2017-08-07T21:41:49.087Z,26.43
2017-08-07T21:44:16.851Z,26.44
2017-08-07T21:46:44.424Z,26.44
2017-08-07T21:49:13.029Z,26.50
2017-08-07T21:51:40.616Z,26.48
2017-08-07T21:54:08.345Z,26.24
2017-08-07T21:56:35.971Z,26.13
2017-08-07T21:59:04.934Z,26.17
2017-08-07T22:01:33.594Z,26.10
2017-08-07T22:04:01.313Z,26.11
2017-08-07T22:06:30.231Z,26.07
2017-08-07T22:08:59.496Z,26.16
2017-08-07T22:11:28.358Z,26.05
2017-08-07T22:13:56.305Z,26.09
2017-08-07T22:16:24.437Z,26.13
2017-08-07T22:18:52.470Z,26.14
2017-08-07T22:21:22.060Z,25.89
2017-08-07T22:23:49.727Z,25.98
2017-08-07T22:26:18.379Z,25.81
2017-08-07T22:28:47.441Z,25.76
2017-08-07T22:31:14.995Z,25.91
2017-08-07T22:33:42.515Z,25.91
2017-08-07T22:36:10.044Z,25.90
2017-08-07T22:38:37.639Z,25.92
2017-08-07T22:41:05.170Z,25.92
2017-08-07T22:43:32.724Z,25.85
2017-08-07T22:46:00.283Z,25.79
2017-08-07T22:48:27.810Z,25.79
2017-08-07T22:50:55.343Z,25.72
2017-08-07T22:53:22.952Z,25.65
2017-08-07T22:55:50.516Z,25.65
2017-08-07T22:58:18.056Z,25.76
2017-08-07T23:00:45.699Z,25.71
2017-08-07T23:03:13.223Z,25.49
2017-08-07T23:05:40.974Z,25.61
2017-08-07T23:08:08.556Z,25.56
2017-08-07T23:10:36.054Z,25.52
2017-08-07T23:13:03.551Z,25.50
2017-08-07T23:15:31.094Z,25.44
2017-08-07T23:17:58.624Z,25.46
2017-08-07T23:20:26.160Z,25.38
2017-08-07T23:22:53.712Z,25.20
2017-08-07T23:25:21.314Z,25.37
2017-08-07T23:27:48.862Z,25.44
2017-08-07T23:30:16.507Z,25.39
2017-08-07T23:32:44.116Z,25.37
2017-08-07T23:35:11.650Z,25.23
2017-08-07T23:37:39.272Z,25.18
2017-08-07T23:40:06.889Z,25.27
2017-08-07T23:42:34.487Z,25.28
2017-08-07T23:45:02.075Z,25.21
2017-08-07T23:47:29.630Z,25.11
2017-08-07T23:49:57.197Z,25.24
2017-08-07T23:52:24.769Z,25.12
2017-08-07T23:54:52.384Z,25.14
2017-08-07T23:57:19.950Z,25.04
2017-08-07T23:59:47.569Z,24.99
